Aviation Digital Data Service (ADDS)

Output produced by METARs form (1945 UTC 18 June 2019)
found at http://www.aviationweather.gov/metar/data/
 
METAR text: KPIH 181853Z 25015G21KT 10SM SCT070 26/08 A3008 RMK AO2 SLP146 T02560078
Conditions at: KPIH (POCATELLO , ID, US) observed 1853 UTC 18 June 2019
Temperature: 25.6°C (78°F)
Dewpoint: 7.8°C (46°F) [RH = 32%]
Pressure (altimeter): 30.08 inches Hg (1018.7 mb)
[Sea-level pressure: 1014.6 mb]
Winds: from the WSW (250 degrees) at 17 MPH (15 knots; 7.7 m/s)
gusting to 24 MPH (21 knots; 10.8 m/s)
Visibility: 10 or more miles (16+ km)
Ceiling: at least 12,000 feet AGL
Clouds: scattered clouds at 7000 feet AGL
Weather: no significant weather observed at this time

METAR text: KPIH 181753Z 26014G19KT 10SM FEW070 23/08 A3010 RMK AO2 SLP154 T02330078 10233 20078 56005
Conditions at: KPIH (POCATELLO , ID, US) observed 1753 UTC 18 June 2019
Temperature: 23.3°C (74°F)
Dewpoint: 7.8°C (46°F) [RH = 37%]
Pressure (altimeter): 30.10 inches Hg (1019.4 mb)
[Sea-level pressure: 1015.4 mb]
Winds: from the W (260 degrees) at 16 MPH (14 knots; 7.2 m/s)
gusting to 22 MPH (19 knots; 9.8 m/s)
Visibility: 10 or more miles (16+ km)
Ceiling: at least 12,000 feet AGL
Clouds: few clouds at 7000 feet AGL
Weather: no significant weather observed at this time

METAR text: KPIH 181653Z 24011KT 10SM FEW070 21/09 A3011 RMK AO2 SLP159 T02110089
Conditions at: KPIH (POCATELLO , ID, US) observed 1653 UTC 18 June 2019
Temperature: 21.1°C (70°F)
Dewpoint: 8.9°C (48°F) [RH = 46%]
Pressure (altimeter): 30.11 inches Hg (1019.7 mb)
[Sea-level pressure: 1015.9 mb]
Winds: from the WSW (240 degrees) at 13 MPH (11 knots; 5.7 m/s)
Visibility: 10 or more miles (16+ km)
Ceiling: at least 12,000 feet AGL
Clouds: few clouds at 7000 feet AGL
Weather: no significant weather observed at this time

METAR text: KPIH 181553Z 23012KT 10SM FEW110 20/08 A3011 RMK AO2 SLP158 T02000078
Conditions at: KPIH (POCATELLO , ID, US) observed 1553 UTC 18 June 2019
Temperature: 20.0°C (68°F)
Dewpoint: 7.8°C (46°F) [RH = 45%]
Pressure (altimeter): 30.11 inches Hg (1019.7 mb)
[Sea-level pressure: 1015.8 mb]
Winds: from the SW (230 degrees) at 14 MPH (12 knots; 6.2 m/s)
Visibility: 10 or more miles (16+ km)
Ceiling: at least 12,000 feet AGL
Clouds: few clouds at 11000 feet AGL
Weather: no significant weather observed at this time

METAR text: KPIH 181453Z 00000KT 10SM SCT110 17/11 A3012 RMK AO2 SLP161 T01670111 52011
Conditions at: KPIH (POCATELLO , ID, US) observed 1453 UTC 18 June 2019
Temperature: 16.7°C (62°F)
Dewpoint: 11.1°C (52°F) [RH = 70%]
Pressure (altimeter): 30.12 inches Hg (1020.1 mb)
[Sea-level pressure: 1016.1 mb]
Winds: calm
Visibility: 10 or more miles (16+ km)
Ceiling: at least 12,000 feet AGL
Clouds: scattered clouds at 11000 feet AGL
Weather: no significant weather observed at this time

METAR text: KPIH 181353Z 00000KT 10SM FEW110 14/08 A3011 RMK AO2 SLP158 T01440083
Conditions at: KPIH (POCATELLO , ID, US) observed 1353 UTC 18 June 2019
Temperature: 14.4°C (58°F)
Dewpoint: 8.3°C (47°F) [RH = 67%]
Pressure (altimeter): 30.11 inches Hg (1019.7 mb)
[Sea-level pressure: 1015.8 mb]
Winds: calm
Visibility: 10 or more miles (16+ km)
Ceiling: at least 12,000 feet AGL
Clouds: few clouds at 11000 feet AGL
Weather: no significant weather observed at this time

METAR text: KPIH 181253Z 16003KT 10SM FEW110 09/07 A3009 RMK AO2 SLP162 T00890072
Conditions at: KPIH (POCATELLO , ID, US) observed 1253 UTC 18 June 2019
Temperature: 8.9°C (48°F)
Dewpoint: 7.2°C (45°F) [RH = 89%]
Pressure (altimeter): 30.09 inches Hg (1019.0 mb)
[Sea-level pressure: 1016.2 mb]
Winds: from the SSE (160 degrees) at 3 MPH (3 knots; 1.5 m/s)
Visibility: 10 or more miles (16+ km)
Ceiling: at least 12,000 feet AGL
Clouds: few clouds at 11000 feet AGL
Weather: no significant weather observed at this time

METAR text: KPIH 181153Z 00000KT 10SM CLR 08/06 A3008 RMK AO2 SLP156 T00780061 10144 20078 53003
Conditions at: KPIH (POCATELLO , ID, US) observed 1153 UTC 18 June 2019
Temperature: 7.8°C (46°F)
Dewpoint: 6.1°C (43°F) [RH = 89%]
Pressure (altimeter): 30.08 inches Hg (1018.7 mb)
[Sea-level pressure: 1015.6 mb]
Winds: calm
Visibility: 10 or more miles (16+ km)
Ceiling: at least 12,000 feet AGL
Clouds: sky clear below 12,000 feet AGL
Weather: no significant weather observed at this time

METAR text: KPIH 181053Z AUTO 33004KT 10SM CLR 10/08 A3007 RMK AO2 SLP145 T01000078
Conditions at: KPIH (POCATELLO , ID, US) observed 1053 UTC 18 June 2019
Temperature: 10.0°C (50°F)
Dewpoint: 7.8°C (46°F) [RH = 86%]
Pressure (altimeter): 30.07 inches Hg (1018.4 mb)
[Sea-level pressure: 1014.5 mb]
Winds: from the NNW (330 degrees) at 5 MPH (4 knots; 2.1 m/s)
Visibility: 10 or more miles (16+ km)
Ceiling: at least 12,000 feet AGL
Clouds: sky clear below 12,000 feet AGL
Weather: automated observation with no human augmentation;
there may or may not be significant weather present at this time

METAR text: KPIH 180953Z AUTO 09003KT 10SM CLR 12/08 A3007 RMK AO2 SLP138 T01220083
Conditions at: KPIH (POCATELLO , ID, US) observed 0953 UTC 18 June 2019
Temperature: 12.2°C (54°F)
Dewpoint: 8.3°C (47°F) [RH = 77%]
Pressure (altimeter): 30.07 inches Hg (1018.4 mb)
[Sea-level pressure: 1013.8 mb]
Winds: from the E (90 degrees) at 3 MPH (3 knots; 1.5 m/s)
Visibility: 10 or more miles (16+ km)
Ceiling: at least 12,000 feet AGL
Clouds: sky clear below 12,000 feet AGL
Weather: automated observation with no human augmentation;
there may or may not be significant weather present at this time

METAR text: KPIH 180853Z AUTO 17004KT 10SM CLR 12/08 A3007 RMK AO2 SLP141 T01170078 55000
Conditions at: KPIH (POCATELLO , ID, US) observed 0853 UTC 18 June 2019
Temperature: 11.7°C (53°F)
Dewpoint: 7.8°C (46°F) [RH = 77%]
Pressure (altimeter): 30.07 inches Hg (1018.4 mb)
[Sea-level pressure: 1014.1 mb]
Winds: from the S (170 degrees) at 5 MPH (4 knots; 2.1 m/s)
Visibility: 10 or more miles (16+ km)
Ceiling: at least 12,000 feet AGL
Clouds: sky clear below 12,000 feet AGL
Weather: automated observation with no human augmentation;
there may or may not be significant weather present at this time

METAR text: KPIH 180753Z AUTO 00000KT 10SM CLR 13/09 A3007 RMK AO2 SLP138 T01280089
Conditions at: KPIH (POCATELLO , ID, US) observed 0753 UTC 18 June 2019
Temperature: 12.8°C (55°F)
Dewpoint: 8.9°C (48°F) [RH = 77%]
Pressure (altimeter): 30.07 inches Hg (1018.4 mb)
[Sea-level pressure: 1013.8 mb]
Winds: calm
Visibility: 10 or more miles (16+ km)
Ceiling: at least 12,000 feet AGL
Clouds: sky clear below 12,000 feet AGL
Weather: automated observation with no human augmentation;
there may or may not be significant weather present at this time

METAR text: KPIH 180653Z AUTO 33009KT 10SM CLR 12/09 A3007 RMK AO2 SLP144 T01220094 402830100
Conditions at: KPIH (POCATELLO , ID, US) observed 0653 UTC 18 June 2019
Temperature: 12.2°C (54°F)
Dewpoint: 9.4°C (49°F) [RH = 83%]
Pressure (altimeter): 30.07 inches Hg (1018.4 mb)
[Sea-level pressure: 1014.4 mb]
Winds: from the NNW (330 degrees) at 10 MPH (9 knots; 4.6 m/s)
Visibility: 10 or more miles (16+ km)
Ceiling: at least 12,000 feet AGL
Clouds: sky clear below 12,000 feet AGL
Weather: automated observation with no human augmentation;
there may or may not be significant weather present at this time

METAR text: KPIH 180553Z AUTO 09004KT 10SM CLR 14/08 A3007 RMK AO2 SLP143 60000 T01440083 10233 20139 51013
Conditions at: KPIH (POCATELLO , ID, US) observed 0553 UTC 18 June 2019
Temperature: 14.4°C (58°F)
Dewpoint: 8.3°C (47°F) [RH = 67%]
Pressure (altimeter): 30.07 inches Hg (1018.4 mb)
[Sea-level pressure: 1014.3 mb]
Winds: from the E (90 degrees) at 5 MPH (4 knots; 2.1 m/s)
Visibility: 10 or more miles (16+ km)
Ceiling: at least 12,000 feet AGL
Clouds: sky clear below 12,000 feet AGL
Weather: automated observation with no human augmentation;
there may or may not be significant weather present at this time

METAR text: KPIH 180453Z AUTO 21006KT 10SM FEW120 14/09 A3007 RMK AO2 SLP145 T01440094
Conditions at: KPIH (POCATELLO , ID, US) observed 0453 UTC 18 June 2019
Temperature: 14.4°C (58°F)
Dewpoint: 9.4°C (49°F) [RH = 72%]
Pressure (altimeter): 30.07 inches Hg (1018.4 mb)
[Sea-level pressure: 1014.5 mb]
Winds: from the SSW (210 degrees) at 7 MPH (6 knots; 3.1 m/s)
Visibility: 10 or more miles (16+ km)
Ceiling: at least 12,000 feet AGL
Clouds: few clouds at 12000 feet AGL
Weather: automated observation with no human augmentation;
there may or may not be significant weather present at this time

METAR text: KPIH 180353Z 04005KT 10SM CLR 16/09 A3006 RMK AO2 SLP141 T01610094
Conditions at: KPIH (POCATELLO , ID, US) observed 0353 UTC 18 June 2019
Temperature: 16.1°C (61°F)
Dewpoint: 9.4°C (49°F) [RH = 64%]
Pressure (altimeter): 30.06 inches Hg (1018.0 mb)
[Sea-level pressure: 1014.1 mb]
Winds: from the NE (40 degrees) at 6 MPH (5 knots; 2.6 m/s)
Visibility: 10 or more miles (16+ km)
Ceiling: at least 12,000 feet AGL
Clouds: sky clear below 12,000 feet AGL
Weather: no significant weather observed at this time

METAR text: KPIH 180253Z 00000KT 10SM SCT110 19/09 A3003 RMK AO2 SLP129 60000 T01940089 53007
Conditions at: KPIH (POCATELLO , ID, US) observed 0253 UTC 18 June 2019
Temperature: 19.4°C (67°F)
Dewpoint: 8.9°C (48°F) [RH = 51%]
Pressure (altimeter): 30.03 inches Hg (1017.0 mb)
[Sea-level pressure: 1012.9 mb]
Winds: calm
Visibility: 10 or more miles (16+ km)
Ceiling: at least 12,000 feet AGL
Clouds: scattered clouds at 11000 feet AGL
Weather: no significant weather observed at this time

METAR text: KPIH 180153Z 00000KT 10SM BKN110 21/08 A3001 RMK AO2 RAB0055E23 SLP123 P0000 T02110078
Conditions at: KPIH (POCATELLO , ID, US) observed 0153 UTC 18 June 2019
Temperature: 21.1°C (70°F)
Dewpoint: 7.8°C (46°F) [RH = 42%]
Pressure (altimeter): 30.01 inches Hg (1016.3 mb)
[Sea-level pressure: 1012.3 mb]
Winds: calm
Visibility: 10 or more miles (16+ km)
Ceiling: 11000 feet AGL
Clouds: broken clouds at 11000 feet AGL
Weather: no significant weather observed at this time

METAR text: KPIH 180053Z 29014KT 10SM BKN095 21/08 A3001 RMK AO2 PK WND 25026/0023 WSHFT 0033 LTG DSNT SE RAB16E50 TSE12B15E50 SLP127 P0000 T02060078
Conditions at: KPIH (POCATELLO , ID, US) observed 0053 UTC 18 June 2019
Temperature: 20.6°C (69°F)
Dewpoint: 7.8°C (46°F) [RH = 44%]
Pressure (altimeter): 30.01 inches Hg (1016.3 mb)
[Sea-level pressure: 1012.7 mb]
Winds: from the WNW (290 degrees) at 16 MPH (14 knots; 7.2 m/s)
Visibility: 10 or more miles (16+ km)
Ceiling: 9500 feet AGL
Clouds: broken clouds at 9500 feet AGL
Weather: no significant weather observed at this time

METAR text: KPIH 180050Z 29014KT 10SM BKN095 21/08 A3001 RMK AO2 PK WND 25026/0023 WSHFT 0033 LTG DSNT SE RAB16E50 TSE12B15E50 P0000
Conditions at: KPIH (POCATELLO , ID, US) observed 0050 UTC 18 June 2019
Temperature: 21.0°C (70°F)
Dewpoint: 8.0°C (46°F) [RH = 43%]
Pressure (altimeter): 30.01 inches Hg (1016.3 mb)
Winds: from the WNW (290 degrees) at 16 MPH (14 knots; 7.2 m/s)
Visibility: 10 or more miles (16+ km)
Ceiling: 9500 feet AGL
Clouds: broken clouds at 9500 feet AGL
Weather: no significant weather observed at this time

METAR text: KPIH 180016Z 29014KT 10SM -TSRA BKN100 23/07 A3002 RMK AO2 LTG DSNT ALQDS RAB16 TSE12B15 TS OHD AND SW-NW MOV SE P0000 T02280067
Conditions at: KPIH (POCATELLO , ID, US) observed 0016 UTC 18 June 2019
Temperature: 22.8°C (73°F)
Dewpoint: 6.7°C (44°F) [RH = 35%]
Pressure (altimeter): 30.02 inches Hg (1016.7 mb)
Winds: from the WNW (290 degrees) at 16 MPH (14 knots; 7.2 m/s)
Visibility: 10 or more miles (16+ km)
Ceiling: 10000 feet AGL
Clouds: broken clouds at 10000 feet AGL
Weather: -TSRA  (light rain associated with thunderstorm(s))

METAR text: KPIH 172353Z 36008KT 10SM BKN070 BKN120 23/06 A3000 RMK AO2 PK WND 36028/2257 LTG DSNT W SLP124 T02280061 10283 20228 53001
Conditions at: KPIH (POCATELLO , ID, US) observed 2353 UTC 17 June 2019
Temperature: 22.8°C (73°F)
Dewpoint: 6.1°C (43°F) [RH = 34%]
Pressure (altimeter): 30.00 inches Hg (1016.0 mb)
[Sea-level pressure: 1012.4 mb]
Winds: from the N (360 degrees) at 9 MPH (8 knots; 4.1 m/s)
Visibility: 10 or more miles (16+ km)
Ceiling: 7000 feet AGL
Clouds: broken clouds at 7000 feet AGL
broken clouds at 12000 feet AGL
Weather: no significant weather observed at this time

METAR text: KPIH 172253Z 34021G25KT 10SM SCT080 BKN110 25/08 A3000 RMK AO2 LTG DSNT W AND NW SLP118 T02500078
Conditions at: KPIH (POCATELLO , ID, US) observed 2253 UTC 17 June 2019
Temperature: 25.0°C (77°F)
Dewpoint: 7.8°C (46°F) [RH = 33%]
Pressure (altimeter): 30.00 inches Hg (1016.0 mb)
[Sea-level pressure: 1011.8 mb]
Winds: from the NNW (340 degrees) at 24 MPH (21 knots; 10.8 m/s)
gusting to 29 MPH (25 knots; 12.9 m/s)
Visibility: 10 or more miles (16+ km)
Ceiling: 11000 feet AGL
Clouds: scattered clouds at 8000 feet AGL
broken clouds at 11000 feet AGL
Weather: no significant weather observed at this time

METAR text: KPIH 172153Z 31007KT 290V350 10SM SCT075 28/03 A2998 RMK AO2 LTG DSNT N AND NW SLP108 T02780033
Conditions at: KPIH (POCATELLO , ID, US) observed 2153 UTC 17 June 2019
Temperature: 27.8°C (82°F)
Dewpoint: 3.3°C (38°F) [RH = 21%]
Pressure (altimeter): 29.98 inches Hg (1015.3 mb)
[Sea-level pressure: 1010.8 mb]
Winds: from the NW (310 degrees) at 8 MPH (7 knots; 3.6 m/s)
Visibility: 10 or more miles (16+ km)
Ceiling: at least 12,000 feet AGL
Clouds: scattered clouds at 7500 feet AGL
Weather: no significant weather observed at this time

METAR text: KPIH 172053Z 30006KT 10SM SCT080 27/06 A3000 RMK AO2 SLP113 T02720056 56013
Conditions at: KPIH (POCATELLO , ID, US) observed 2053 UTC 17 June 2019
Temperature: 27.2°C (81°F)
Dewpoint: 5.6°C (42°F) [RH = 25%]
Pressure (altimeter): 30.00 inches Hg (1016.0 mb)
[Sea-level pressure: 1011.3 mb]
Winds: from the WNW (300 degrees) at 7 MPH (6 knots; 3.1 m/s)
Visibility: 10 or more miles (16+ km)
Ceiling: at least 12,000 feet AGL
Clouds: scattered clouds at 8000 feet AGL
Weather: no significant weather observed at this time

METAR text: KPIH 171953Z COR 02006KT 10SM SCT080 27/06 A3001 RMK AO2 LTG DSNT SE SLP121 T02670061
Conditions at: KPIH (POCATELLO , ID, US) observed 1953 UTC 17 June 2019
Temperature: 26.7°C (80°F)
Dewpoint: 6.1°C (43°F) [RH = 27%]
Pressure (altimeter): 30.01 inches Hg (1016.3 mb)
[Sea-level pressure: 1012.1 mb]
Winds: from the NNE (20 degrees) at 7 MPH (6 knots; 3.1 m/s)
Visibility: 10 or more miles (16+ km)
Ceiling: at least 12,000 feet AGL
Clouds: scattered clouds at 8000 feet AGL
Weather: no significant weather observed at this time

METAR text: KPIH 171853Z VRB05KT 10SM SCT080 26/08 A3003 RMK AO2 SLP129 T02560083
Conditions at: KPIH (POCATELLO , ID, US) observed 1853 UTC 17 June 2019
Temperature: 25.6°C (78°F)
Dewpoint: 8.3°C (47°F) [RH = 33%]
Pressure (altimeter): 30.03 inches Hg (1017.0 mb)
[Sea-level pressure: 1012.9 mb]
Winds: variable direction winds at 6 MPH (5 knots; 2.6 m/s)
Visibility: 10 or more miles (16+ km)
Ceiling: at least 12,000 feet AGL
Clouds: scattered clouds at 8000 feet AGL
Weather: no significant weather observed at this time

METAR text: KPIH 171753Z 36007KT 330V050 10SM SCT080 23/09 A3004 RMK AO2 SLP136 T02330094 10233 20100 50006
Conditions at: KPIH (POCATELLO , ID, US) observed 1753 UTC 17 June 2019
Temperature: 23.3°C (74°F)
Dewpoint: 9.4°C (49°F) [RH = 41%]
Pressure (altimeter): 30.04 inches Hg (1017.4 mb)
[Sea-level pressure: 1013.6 mb]
Winds: from the N (360 degrees) at 8 MPH (7 knots; 3.6 m/s)
Visibility: 10 or more miles (16+ km)
Ceiling: at least 12,000 feet AGL
Clouds: scattered clouds at 8000 feet AGL
Weather: no significant weather observed at this time

METAR text: KPIH 171653Z 01005KT 10SM FEW080 21/09 A3004 RMK AO2 SLP135 T02110094
Conditions at: KPIH (POCATELLO , ID, US) observed 1653 UTC 17 June 2019
Temperature: 21.1°C (70°F)
Dewpoint: 9.4°C (49°F) [RH = 47%]
Pressure (altimeter): 30.04 inches Hg (1017.4 mb)
[Sea-level pressure: 1013.5 mb]
Winds: from the N (10 degrees) at 6 MPH (5 knots; 2.6 m/s)
Visibility: 10 or more miles (16+ km)
Ceiling: at least 12,000 feet AGL
Clouds: few clouds at 8000 feet AGL
Weather: no significant weather observed at this time

METAR text: KPIH 171553Z 32007KT 10SM FEW090 19/09 A3004 RMK AO2 SLP136 T01940094
Conditions at: KPIH (POCATELLO , ID, US) observed 1553 UTC 17 June 2019
Temperature: 19.4°C (67°F)
Dewpoint: 9.4°C (49°F) [RH = 52%]
Pressure (altimeter): 30.04 inches Hg (1017.4 mb)
[Sea-level pressure: 1013.6 mb]
Winds: from the NW (320 degrees) at 8 MPH (7 knots; 3.6 m/s)
Visibility: 10 or more miles (16+ km)
Ceiling: at least 12,000 feet AGL
Clouds: few clouds at 9000 feet AGL
Weather: no significant weather observed at this time

METAR text: KPIH 171453Z 16003KT 10SM SCT090 18/09 A3002 RMK AO2 SLP123 T01780089 50001
Conditions at: KPIH (POCATELLO , ID, US) observed 1453 UTC 17 June 2019
Temperature: 17.8°C (64°F)
Dewpoint: 8.9°C (48°F) [RH = 56%]
Pressure (altimeter): 30.02 inches Hg (1016.7 mb)
[Sea-level pressure: 1012.3 mb]
Winds: from the SSE (160 degrees) at 3 MPH (3 knots; 1.5 m/s)
Visibility: 10 or more miles (16+ km)
Ceiling: at least 12,000 feet AGL
Clouds: scattered clouds at 9000 feet AGL
Weather: no significant weather observed at this time

METAR text: KPIH 171353Z 02004KT 10SM SCT075 16/09 A3002 RMK AO2 SLP123 T01610089
Conditions at: KPIH (POCATELLO , ID, US) observed 1353 UTC 17 June 2019
Temperature: 16.1°C (61°F)
Dewpoint: 8.9°C (48°F) [RH = 62%]
Pressure (altimeter): 30.02 inches Hg (1016.7 mb)
[Sea-level pressure: 1012.3 mb]
Winds: from the NNE (20 degrees) at 5 MPH (4 knots; 2.1 m/s)
Visibility: 10 or more miles (16+ km)
Ceiling: at least 12,000 feet AGL
Clouds: scattered clouds at 7500 feet AGL
Weather: no significant weather observed at this time

METAR text: KPIH 171253Z COR 00000KT 10SM SCT075 12/09 A3002 RMK AO2 SLP127 T01220089
Conditions at: KPIH (POCATELLO , ID, US) observed 1253 UTC 17 June 2019
Temperature: 12.2°C (54°F)
Dewpoint: 8.9°C (48°F) [RH = 80%]
Pressure (altimeter): 30.02 inches Hg (1016.7 mb)
[Sea-level pressure: 1012.7 mb]
Winds: calm
Visibility: 10 or more miles (16+ km)
Ceiling: at least 12,000 feet AGL
Clouds: scattered clouds at 7500 feet AGL
Weather: no significant weather observed at this time

METAR text: KPIH 171153Z 09003KT 10SM FEW120 11/09 A3002 RMK AO2 SLP123 T01110089 10139 20106 53007
Conditions at: KPIH (POCATELLO , ID, US) observed 1153 UTC 17 June 2019
Temperature: 11.1°C (52°F)
Dewpoint: 8.9°C (48°F) [RH = 86%]
Pressure (altimeter): 30.02 inches Hg (1016.7 mb)
[Sea-level pressure: 1012.3 mb]
Winds: from the E (90 degrees) at 3 MPH (3 knots; 1.5 m/s)
Visibility: 10 or more miles (16+ km)
Ceiling: at least 12,000 feet AGL
Clouds: few clouds at 12000 feet AGL
Weather: no significant weather observed at this time

METAR text: KPIH 171053Z AUTO 33006KT 10SM SCT120 13/09 A3001 RMK AO2 SLP117 T01280089
Conditions at: KPIH (POCATELLO , ID, US) observed 1053 UTC 17 June 2019
Temperature: 12.8°C (55°F)
Dewpoint: 8.9°C (48°F) [RH = 77%]
Pressure (altimeter): 30.01 inches Hg (1016.3 mb)
[Sea-level pressure: 1011.7 mb]
Winds: from the NNW (330 degrees) at 7 MPH (6 knots; 3.1 m/s)
Visibility: 10 or more miles (16+ km)
Ceiling: at least 12,000 feet AGL
Clouds: scattered clouds at 12000 feet AGL
Weather: automated observation with no human augmentation;
there may or may not be significant weather present at this time

METAR text: KPIH 170953Z AUTO 24003KT 10SM FEW110 13/09 A3000 RMK AO2 SLP113 T01330089
Conditions at: KPIH (POCATELLO , ID, US) observed 0953 UTC 17 June 2019
Temperature: 13.3°C (56°F)
Dewpoint: 8.9°C (48°F) [RH = 75%]
Pressure (altimeter): 30.00 inches Hg (1016.0 mb)
[Sea-level pressure: 1011.3 mb]
Winds: from the WSW (240 degrees) at 3 MPH (3 knots; 1.5 m/s)
Visibility: 10 or more miles (16+ km)
Ceiling: at least 12,000 feet AGL
Clouds: few clouds at 11000 feet AGL
Weather: automated observation with no human augmentation;
there may or may not be significant weather present at this time

METAR text: KPIH 170853Z AUTO 30004KT 10SM CLR 13/09 A3000 RMK AO2 SLP112 T01330094 53009
Conditions at: KPIH (POCATELLO , ID, US) observed 0853 UTC 17 June 2019
Temperature: 13.3°C (56°F)
Dewpoint: 9.4°C (49°F) [RH = 77%]
Pressure (altimeter): 30.00 inches Hg (1016.0 mb)
[Sea-level pressure: 1011.2 mb]
Winds: from the WNW (300 degrees) at 5 MPH (4 knots; 2.1 m/s)
Visibility: 10 or more miles (16+ km)
Ceiling: at least 12,000 feet AGL
Clouds: sky clear below 12,000 feet AGL
Weather: automated observation with no human augmentation;
there may or may not be significant weather present at this time

METAR text: KPIH 170753Z AUTO 00000KT 10SM FEW120 12/08 A2999 RMK AO2 SLP113 T01170078
Conditions at: KPIH (POCATELLO , ID, US) observed 0753 UTC 17 June 2019
Temperature: 11.7°C (53°F)
Dewpoint: 7.8°C (46°F) [RH = 77%]
Pressure (altimeter): 29.99 inches Hg (1015.7 mb)
[Sea-level pressure: 1011.3 mb]
Winds: calm
Visibility: 10 or more miles (16+ km)
Ceiling: at least 12,000 feet AGL
Clouds: few clouds at 12000 feet AGL
Weather: automated observation with no human augmentation;
there may or may not be significant weather present at this time

Forecast for: KPIH (POCATELLO , ID, US)
Text: KPIH 181725Z 1818/1918 24011KT P6SM FEW070 SCT100
Forecast period: 1800 to 1900 UTC 18 June 2019
Forecast type: FROM: standard forecast or significant change
Winds: from the WSW (240 degrees) at 13 MPH (11 knots; 5.7 m/s)
Visibility: 6 or more miles 10+ km)
Ceiling: at least 12,000 feet AGL
Clouds: few clouds at 7000 feet AGL
scattered clouds at 10000 feet AGL
Weather: no significant weather forecast for this period
Text: FM181900 25014G22KT P6SM VCTS SCT060 SCT100CB
Forecast period: 1900 UTC 18 June 2019 to 0300 UTC 19 June 2019
Forecast type: FROM: standard forecast or significant change
Winds: from the WSW (250 degrees) at 16 MPH (14 knots; 7.2 m/s)
gusting to 25 MPH (22 knots; 11.3 m/s)
Visibility: 6 or more miles 10+ km)
Ceiling: at least 12,000 feet AGL
Clouds: scattered clouds at 6000 feet AGL
scattered clouds at 10000 feet AGL
Weather: VCTS  (thunderstorm in vicinity)
Text: FM190300 21011KT P6SM VCSH SCT080
Forecast period: 0300 to 1800 UTC 19 June 2019
Forecast type: FROM: standard forecast or significant change
Winds: from the SSW (210 degrees) at 13 MPH (11 knots; 5.7 m/s)
Visibility: 6 or more miles 10+ km)
Ceiling: at least 12,000 feet AGL
Clouds: scattered clouds at 8000 feet AGL
Weather: VCSH  (showers in vicinity)